Time;durP1;ratioP1;P1;durP2;ratioP2;P2;SDS_P1;SDS_P2;PMS_P1;PMS_P2;Temp;Humidity;BMP_temperature;BMP_pressure;BME280_temperature;BME280_humidity;BME280_pressure;Samples;Min_cycle;Max_cycle;Signal;HPM_P1;HPM_P2
2021/08/23 00:00:00;;;;;;;0.50;0.30;;;17.90;99.90;;;;;;4999350;28;20442;-83
2021/08/23 00:02:27;;;;;;;0.50;0.40;;;17.80;99.90;;;;;;4998907;28;20482;-83
2021/08/23 00:04:54;;;;;;;0.50;0.30;;;17.80;99.90;;;;;;4999819;28;20811;-83
2021/08/23 00:07:20;;;;;;;12.80;7.83;;;17.80;99.90;;;;;;5000115;28;20791;-81
2021/08/23 00:09:47;;;;;;;0.50;0.30;;;17.80;99.90;;;;;;5000022;28;20444;-83
2021/08/23 00:12:16;;;;;;;0.50;0.30;;;17.80;99.90;;;;;;5001197;28;20544;-81
2021/08/23 00:14:43;;;;;;;0.50;0.30;;;17.80;99.90;;;;;;4999806;28;20449;-82
2021/08/23 00:17:10;;;;;;;0.50;0.30;;;17.90;99.90;;;;;;4999360;28;20451;-83
2021/08/23 00:19:37;;;;;;;0.50;0.30;;;17.80;99.90;;;;;;4999387;28;20448;-83
2021/08/23 00:22:19;;;;;;;0.50;0.37;;;17.80;99.90;;;;;;4999407;28;20464;-82
2021/08/23 00:24:47;;;;;;;0.50;0.30;;;17.80;99.90;;;;;;5000061;28;20430;-82
2021/08/23 00:27:15;;;;;;;0.50;0.40;;;17.90;99.90;;;;;;4999374;28;20951;-84
2021/08/23 00:29:42;;;;;;;0.50;0.40;;;17.90;99.90;;;;;;4999594;28;20444;-82
2021/08/23 00:32:09;;;;;;;0.50;0.30;;;17.90;99.90;;;;;;4998504;28;20481;-82
2021/08/23 00:34:35;;;;;;;0.50;0.30;;;17.80;99.90;;;;;;4999399;28;20934;-84
2021/08/23 00:37:02;;;;;;;0.50;0.30;;;17.80;99.90;;;;;;4999409;28;20801;-82
2021/08/23 00:39:29;;;;;;;0.50;0.30;;;17.80;99.90;;;;;;4997809;28;20459;-83
2021/08/23 00:41:56;;;;;;;0.50;0.30;;;17.80;99.90;;;;;;4997852;28;20968;-84
2021/08/23 00:44:24;;;;;;;0.50;0.30;;;17.80;99.90;;;;;;4998363;28;20453;-84
2021/08/23 00:46:51;;;;;;;0.50;0.30;;;17.80;99.90;;;;;;4998375;28;20445;-83
2021/08/23 00:49:17;;;;;;;0.50;0.30;;;17.80;99.90;;;;;;4998198;28;20941;-83
2021/08/23 00:51:44;;;;;;;0.50;0.40;;;17.80;99.90;;;;;;4998565;28;20469;-83
2021/08/23 00:54:11;;;;;;;0.50;0.30;;;17.80;99.90;;;;;;4998541;28;20487;-82
2021/08/23 00:56:38;;;;;;;0.50;0.30;;;17.80;99.90;;;;;;4998804;28;20452;-83
2021/08/23 00:59:08;;;;;;;0.50;0.30;;;17.80;99.90;;;;;;4998904;28;20479;-83
2021/08/23 01:01:44;;;;;;;0.50;0.30;;;17.70;99.90;;;;;;4997538;28;20901;-84
2021/08/23 01:04:16;;;;;;;0.50;0.30;;;17.80;99.90;;;;;;4999030;28;20436;-81
2021/08/23 01:06:45;;;;;;;0.50;0.30;;;17.80;99.90;;;;;;4998673;28;20798;-83
2021/08/23 01:09:15;;;;;;;0.50;0.30;;;17.70;99.90;;;;;;4997854;28;20513;-82
2021/08/23 01:11:48;;;;;;;0.50;0.30;;;17.80;99.90;;;;;;4998247;28;20457;-82
2021/08/23 01:14:15;;;;;;;0.50;0.30;;;17.70;99.90;;;;;;4997905;28;20434;-83
2021/08/23 01:16:43;;;;;;;0.50;0.30;;;17.70;99.90;;;;;;4998223;28;20437;-84
2021/08/23 01:19:12;;;;;;;0.50;0.30;;;17.70;99.90;;;;;;4998184;28;20440;-84
2021/08/23 01:21:39;;;;;;;0.50;0.40;;;17.70;99.90;;;;;;4997818;28;20465;-83
2021/08/23 01:24:10;;;;;;;0.50;0.30;;;17.70;99.90;;;;;;4997582;28;20523;-83
2021/08/23 01:26:42;;;;;;;0.50;0.30;;;17.70;99.90;;;;;;4997800;28;20444;-82
2021/08/23 01:29:16;;;;;;;0.50;0.40;;;17.60;99.90;;;;;;4997882;28;20795;-83
2021/08/23 01:31:52;;;;;;;0.50;0.33;;;17.60;99.90;;;;;;4998006;28;20468;-83
2021/08/23 01:34:22;;;;;;;0.50;0.30;;;17.60;99.90;;;;;;4997889;28;20448;-81
2021/08/23 01:36:50;;;;;;;0.50;0.40;;;17.60;99.90;;;;;;4997694;28;20436;-82
2021/08/23 01:39:17;;;;;;;0.50;0.40;;;17.50;99.90;;;;;;4999278;28;20961;-82
2021/08/23 01:41:43;;;;;;;0.50;0.40;;;17.50;99.90;;;;;;4997377;28;20460;-84
2021/08/23 01:44:10;;;;;;;0.50;0.30;;;17.40;99.90;;;;;;4995935;28;20441;-83
2021/08/23 01:46:37;;;;;;;0.50;0.30;;;17.30;99.90;;;;;;4995946;28;20788;-81
2021/08/23 01:49:05;;;;;;;0.50;0.30;;;17.10;99.90;;;;;;4996440;28;20810;-83
2021/08/23 01:51:34;;;;;;;0.50;0.30;;;17.00;99.90;;;;;;4996253;28;20457;-82
2021/08/23 01:54:01;;;;;;;0.50;0.30;;;16.90;99.90;;;;;;4996228;28;20481;-83
2021/08/23 01:56:29;;;;;;;0.50;0.30;;;16.90;99.90;;;;;;4995970;28;20444;-83
2021/08/23 01:58:56;;;;;;;0.50;0.40;;;16.90;99.90;;;;;;4995162;28;20969;-81
2021/08/23 02:01:23;;;;;;;0.50;0.30;;;16.90;99.90;;;;;;4995626;28;20445;-83
2021/08/23 02:03:50;;;;;;;0.50;0.30;;;16.90;99.90;;;;;;4995766;28;20450;-83
2021/08/23 02:06:16;;;;;;;0.50;0.30;;;17.00;99.90;;;;;;4995950;28;20817;-82
2021/08/23 02:08:45;;;;;;;0.50;0.30;;;17.00;99.90;;;;;;4995121;28;20444;-82
2021/08/23 02:11:12;;;;;;;0.50;0.30;;;17.10;99.90;;;;;;4995409;28;20444;-81
2021/08/23 02:13:38;;;;;;;0.50;0.30;;;17.10;99.90;;;;;;4995090;28;20986;-83
2021/08/23 02:16:05;;;;;;;0.50;0.30;;;17.10;99.90;;;;;;4996126;28;20459;-83
2021/08/23 02:18:32;;;;;;;0.50;0.30;;;17.10;99.90;;;;;;4995144;28;20469;-83
2021/08/23 02:20:59;;;;;;;0.50;0.30;;;17.10;99.90;;;;;;4994764;28;20974;-81
2021/08/23 02:23:26;;;;;;;0.50;0.30;;;17.20;99.90;;;;;;4994741;28;20469;-82
2021/08/23 02:25:55;;;;;;;0.50;0.30;;;17.20;99.90;;;;;;4995489;28;20815;-82
2021/08/23 02:28:21;;;;;;;0.50;0.30;;;17.10;99.90;;;;;;4995464;28;20444;-82
2021/08/23 02:30:48;;;;;;;0.50;0.30;;;17.10;99.90;;;;;;4995068;28;20436;-83
2021/08/23 02:33:15;;;;;;;0.50;0.30;;;17.10;99.90;;;;;;4995127;28;20503;-81
2021/08/23 02:35:42;;;;;;;0.50;0.30;;;17.10;99.90;;;;;;4994977;28;20835;-81
2021/08/23 02:38:08;;;;;;;0.50;0.30;;;17.20;99.90;;;;;;4994973;28;20441;-82
2021/08/23 02:40:35;;;;;;;0.50;0.30;;;17.20;99.90;;;;;;4995297;28;20988;-82
2021/08/23 02:43:04;;;;;;;0.50;0.30;;;17.20;99.90;;;;;;4995832;28;20464;-83
2021/08/23 02:45:31;;;;;;;0.50;0.30;;;17.20;99.90;;;;;;4995652;28;20973;-83
2021/08/23 02:47:58;;;;;;;0.50;0.30;;;17.20;99.90;;;;;;4994613;28;20504;-83
2021/08/23 02:50:25;;;;;;;0.93;0.93;;;17.20;99.90;;;;;;4995405;28;20521;-83
2021/08/23 02:52:51;;;;;;;0.50;0.30;;;17.20;99.90;;;;;;4996121;28;20485;-81
2021/08/23 02:55:18;;;;;;;0.50;0.30;;;17.30;99.90;;;;;;4995882;28;20834;-82
2021/08/23 02:57:45;;;;;;;0.50;0.30;;;17.30;99.90;;;;;;4995557;28;20452;-82
2021/08/23 03:00:14;;;;;;;0.50;0.30;;;17.30;99.90;;;;;;4994172;28;20449;-80
2021/08/23 03:02:41;;;;;;;0.50;0.30;;;17.40;99.90;;;;;;4995167;28;20476;-83
2021/08/23 03:05:08;;;;;;;0.50;0.30;;;17.40;99.90;;;;;;4996238;28;20448;-83
2021/08/23 03:07:35;;;;;;;0.50;0.40;;;17.40;99.90;;;;;;4994734;28;20444;-81
2021/08/23 03:10:02;;;;;;;0.50;0.30;;;17.50;99.90;;;;;;4994364;28;20445;-83
2021/08/23 03:12:29;;;;;;;0.50;0.30;;;17.40;99.90;;;;;;4994593;28;20455;-83
2021/08/23 03:14:55;;;;;;;0.50;0.30;;;17.30;99.90;;;;;;4994941;28;20456;-83
2021/08/23 03:17:24;;;;;;;0.50;0.30;;;17.30;99.90;;;;;;4994609;28;20446;-83
2021/08/23 03:19:50;;;;;;;0.50;0.30;;;17.20;99.90;;;;;;4994941;28;20440;-83
2021/08/23 03:22:17;;;;;;;0.50;0.30;;;17.10;99.90;;;;;;4994320;28;20467;-81
2021/08/23 03:24:44;;;;;;;0.50;0.30;;;17.20;99.90;;;;;;4994760;28;20444;-83
2021/08/23 03:27:10;;;;;;;0.50;0.40;;;17.20;99.90;;;;;;4994548;28;20459;-83
2021/08/23 03:29:37;;;;;;;0.50;0.30;;;17.20;99.90;;;;;;4994338;28;20443;-83
2021/08/23 03:32:05;;;;;;;0.50;0.40;;;17.20;99.90;;;;;;4994626;28;20487;-82
2021/08/23 03:34:33;;;;;;;0.50;0.40;;;17.30;99.90;;;;;;4997571;28;20483;-83
2021/08/23 03:37:01;;;;;;;0.50;0.30;;;17.30;99.90;;;;;;4997913;28;20969;-83
2021/08/23 03:39:27;;;;;;;0.50;0.30;;;17.30;99.90;;;;;;4997677;28;20456;-81
2021/08/23 03:41:54;;;;;;;0.50;0.30;;;17.30;99.90;;;;;;4997506;28;20460;-81
2021/08/23 03:44:21;;;;;;;1.67;1.57;;;17.30;99.90;;;;;;4998354;28;20444;-80
2021/08/23 03:46:47;;;;;;;0.50;0.30;;;17.40;99.90;;;;;;4998337;28;20439;-84
2021/08/23 03:49:14;;;;;;;0.50;0.30;;;17.40;99.90;;;;;;4997838;28;20472;-83
2021/08/23 03:51:42;;;;;;;0.50;0.40;;;17.40;99.90;;;;;;4997156;28;21002;-82
2021/08/23 03:54:09;;;;;;;0.50;0.30;;;17.40;99.90;;;;;;4997535;28;21016;-82
2021/08/23 03:56:36;;;;;;;0.50;0.30;;;17.40;99.90;;;;;;4997969;28;20469;-81
2021/08/23 03:59:03;;;;;;;0.50;0.30;;;17.40;99.90;;;;;;4997829;28;20818;-83
2021/08/23 04:01:30;;;;;;;0.50;0.30;;;17.40;99.90;;;;;;4997070;28;20436;-82
2021/08/23 04:03:56;;;;;;;0.50;0.30;;;17.40;99.90;;;;;;4997217;28;20443;-83
2021/08/23 04:06:23;;;;;;;0.50;0.30;;;17.40;99.90;;;;;;4997216;28;20447;-80
2021/08/23 04:08:51;;;;;;;0.50;0.40;;;17.30;99.90;;;;;;4996456;28;20432;-82
2021/08/23 04:11:18;;;;;;;0.50;0.30;;;17.40;99.90;;;;;;4997092;28;20954;-82
2021/08/23 04:13:45;;;;;;;0.50;0.30;;;17.30;99.90;;;;;;4996974;28;20846;-81
2021/08/23 04:16:12;;;;;;;0.50;0.30;;;17.30;99.90;;;;;;4996990;28;20447;-83
2021/08/23 04:18:39;;;;;;;0.50;0.30;;;17.40;99.90;;;;;;4997633;28;20444;-84
2021/08/23 04:21:06;;;;;;;0.50;0.30;;;17.40;99.90;;;;;;4997402;28;20508;-83
2021/08/23 04:23:33;;;;;;;0.50;0.40;;;17.40;99.90;;;;;;4997262;28;20469;-87
2021/08/23 04:26:01;;;;;;;0.50;0.30;;;17.40;99.90;;;;;;4999302;28;20443;-85
2021/08/23 04:28:28;;;;;;;0.50;0.30;;;17.40;99.90;;;;;;4998583;28;20448;-81
2021/08/23 04:30:55;;;;;;;0.50;0.30;;;17.40;99.90;;;;;;4998800;28;20452;-86
2021/08/23 04:33:22;;;;;;;0.50;0.30;;;17.50;99.90;;;;;;4998424;28;20472;-83
2021/08/23 04:35:48;;;;;;;0.50;0.30;;;17.50;99.90;;;;;;4999245;28;20446;-83
2021/08/23 04:38:16;;;;;;;0.50;0.30;;;17.50;99.90;;;;;;4999451;28;20454;-86
2021/08/23 04:40:42;;;;;;;0.50;0.30;;;17.50;99.90;;;;;;4999052;28;20436;-81
2021/08/23 04:43:11;;;;;;;0.50;0.40;;;17.50;99.90;;;;;;4999738;28;20834;-85
2021/08/23 04:45:37;;;;;;;0.50;0.40;;;17.50;99.90;;;;;;4998046;28;20444;-85
2021/08/23 04:48:05;;;;;;;1.23;1.13;;;17.50;99.90;;;;;;4997599;28;20456;-84
2021/08/23 04:50:31;;;;;;;0.50;0.30;;;17.50;99.90;;;;;;4998917;28;20448;-83
2021/08/23 04:52:58;;;;;;;0.50;0.30;;;17.50;99.90;;;;;;4998791;28;20476;-84
2021/08/23 04:55:25;;;;;;;0.50;0.30;;;17.40;99.90;;;;;;4998933;28;20445;-83
2021/08/23 04:57:53;;;;;;;0.50;0.40;;;17.50;99.90;;;;;;4998786;28;20447;-84
2021/08/23 05:00:21;;;;;;;0.50;0.30;;;17.40;99.90;;;;;;4999066;28;20446;-85
2021/08/23 05:02:48;;;;;;;0.50;0.33;;;17.50;99.90;;;;;;4998945;28;20499;-85
2021/08/23 05:05:14;;;;;;;0.50;0.50;;;17.50;99.90;;;;;;4999223;28;20449;-84
2021/08/23 05:07:41;;;;;;;0.50;0.30;;;17.50;99.90;;;;;;4998008;28;20444;-84
2021/08/23 05:10:09;;;;;;;0.50;0.37;;;17.50;99.90;;;;;;4997296;28;20508;-83
2021/08/23 05:12:36;;;;;;;2.30;2.20;;;17.50;99.90;;;;;;4999041;28;20467;-84
2021/08/23 05:15:03;;;;;;;0.50;0.40;;;17.50;99.90;;;;;;4997626;28;20489;-86
2021/08/23 05:17:31;;;;;;;0.50;0.40;;;17.50;99.90;;;;;;4997906;28;20456;-85
2021/08/23 05:19:58;;;;;;;0.50;0.37;;;17.60;99.90;;;;;;4996721;28;20455;-86
2021/08/23 05:22:25;;;;;;;0.50;0.30;;;17.60;99.90;;;;;;4997364;28;20477;-84
2021/08/23 05:24:52;;;;;;;0.50;0.30;;;17.60;99.90;;;;;;4997400;28;20438;-86
2021/08/23 05:27:19;;;;;;;0.50;0.30;;;17.70;99.90;;;;;;4997747;28;20982;-87
2021/08/23 05:29:46;;;;;;;0.50;0.30;;;17.80;99.90;;;;;;4999214;28;20810;-86
2021/08/23 05:32:16;;;;;;;0.50;0.30;;;17.90;99.90;;;;;;4998236;28;20459;-84
2021/08/23 05:34:45;;;;;;;0.50;0.30;;;17.90;99.90;;;;;;4998279;28;20461;-86
2021/08/23 05:37:12;;;;;;;0.50;0.40;;;17.90;99.90;;;;;;4997823;28;20436;-86
2021/08/23 05:39:39;;;;;;;0.50;0.30;;;17.90;99.90;;;;;;4999597;28;20751;-85
2021/08/23 05:42:06;;;;;;;0.50;0.30;;;18.00;99.90;;;;;;5000185;28;20990;-86
2021/08/23 05:44:32;;;;;;;0.50;0.30;;;18.10;99.90;;;;;;4999281;28;20454;-84
2021/08/23 05:46:59;;;;;;;0.50;0.30;;;18.10;99.90;;;;;;4998510;28;20461;-86
2021/08/23 05:49:26;;;;;;;0.50;0.30;;;18.10;99.90;;;;;;4997019;28;20447;-83
2021/08/23 05:51:54;;;;;;;0.50;0.30;;;18.20;99.90;;;;;;4997282;28;20456;-84
2021/08/23 05:54:21;;;;;;;1.80;1.70;;;18.20;99.90;;;;;;4997693;28;20469;-85
2021/08/23 05:56:48;;;;;;;0.50;0.50;;;18.20;99.90;;;;;;4997566;28;20468;-86
2021/08/23 05:59:14;;;;;;;0.77;0.77;;;18.10;99.90;;;;;;4998004;28;20922;-86
2021/08/23 06:01:41;;;;;;;0.50;0.30;;;18.20;99.90;;;;;;4997268;28;20457;-84
2021/08/23 06:04:08;;;;;;;0.50;0.30;;;18.20;99.90;;;;;;4998023;28;20451;-83
2021/08/23 06:06:35;;;;;;;0.50;0.30;;;18.20;99.90;;;;;;5000350;28;20437;-84
2021/08/23 06:09:03;;;;;;;0.50;0.40;;;18.30;99.90;;;;;;4997875;28;20452;-87
2021/08/23 06:11:29;;;;;;;0.50;0.30;;;18.30;99.90;;;;;;4989779;28;20460;-87
2021/08/23 06:13:58;;;;;;;0.50;0.30;;;18.40;99.90;;;;;;4992099;28;20488;-86
2021/08/23 06:16:25;;;;;;;0.60;0.40;;;18.40;99.90;;;;;;4996622;28;20476;-83
2021/08/23 06:18:51;;;;;;;0.50;0.30;;;18.40;99.90;;;;;;4997519;28;20433;-86
2021/08/23 06:21:18;;;;;;;0.50;0.30;;;18.40;99.90;;;;;;4998083;28;20440;-83
2021/08/23 06:23:45;;;;;;;1.03;1.03;;;18.40;99.90;;;;;;4998562;28;20792;-86
2021/08/23 06:26:13;;;;;;;0.50;0.30;;;18.40;99.90;;;;;;4998362;28;20477;-85
2021/08/23 06:28:40;;;;;;;1.13;1.13;;;18.40;99.90;;;;;;4997179;28;20444;-84
2021/08/23 06:31:06;;;;;;;0.50;0.30;;;18.40;99.90;;;;;;4997546;28;20970;-85
2021/08/23 06:33:35;;;;;;;0.50;0.30;;;18.30;99.90;;;;;;4998292;28;20464;-83
2021/08/23 06:36:01;;;;;;;0.50;0.33;;;18.30;99.90;;;;;;4997264;28;20459;-84
2021/08/23 06:38:28;;;;;;;0.50;0.30;;;18.30;99.90;;;;;;4997535;28;20452;-83
2021/08/23 06:40:55;;;;;;;1.27;1.17;;;18.20;99.90;;;;;;4997157;28;20436;-84
2021/08/23 06:43:24;;;;;;;0.50;0.40;;;18.20;99.90;;;;;;4996863;28;20462;-82
2021/08/23 06:45:50;;;;;;;0.50;0.30;;;18.20;99.90;;;;;;4996546;28;20442;-82
2021/08/23 06:48:17;;;;;;;0.50;0.30;;;18.10;99.90;;;;;;4995117;28;20432;-84
2021/08/23 06:50:44;;;;;;;0.50;0.30;;;18.00;99.90;;;;;;4996126;28;20444;-80
2021/08/23 06:53:11;;;;;;;0.50;0.30;;;18.00;99.90;;;;;;4996116;28;20835;-86
2021/08/23 06:55:38;;;;;;;0.50;0.30;;;18.00;99.90;;;;;;4996329;28;20704;-84
2021/08/23 06:58:05;;;;;;;0.50;0.40;;;18.00;99.90;;;;;;4996616;28;20459;-83
2021/08/23 07:00:33;;;;;;;0.50;0.40;;;18.00;99.90;;;;;;4996311;28;20448;-83
2021/08/23 07:03:00;;;;;;;5.80;3.47;;;17.90;99.90;;;;;;4995772;28;20474;-82
2021/08/23 07:05:27;;;;;;;0.50;0.30;;;17.90;99.90;;;;;;4993376;28;20461;-83
2021/08/23 07:07:53;;;;;;;1.53;1.53;;;17.80;99.90;;;;;;4993043;28;20436;-84
2021/08/23 07:10:20;;;;;;;0.50;0.30;;;17.80;99.90;;;;;;4979068;28;20445;-84
2021/08/23 07:12:47;;;;;;;1.83;1.73;;;17.80;99.90;;;;;;4980233;28;20469;-86
2021/08/23 07:15:14;;;;;;;1.20;1.17;;;17.60;99.90;;;;;;4979267;28;20499;-83
2021/08/23 07:17:42;;;;;;;0.50;0.37;;;17.60;99.90;;;;;;4980306;28;20448;-86
2021/08/23 07:20:09;;;;;;;0.50;0.30;;;17.60;99.90;;;;;;4979764;28;20448;-83
2021/08/23 07:22:37;;;;;;;0.50;0.30;;;17.70;99.90;;;;;;4979643;28;20470;-83
2021/08/23 07:25:05;;;;;;;17.50;12.80;;;17.90;99.90;;;;;;4991146;28;21031;-85
2021/08/23 07:27:32;;;;;;;0.50;0.30;;;18.10;99.90;;;;;;4999553;28;20482;-86
2021/08/23 07:29:59;;;;;;;0.50;0.30;;;18.20;99.90;;;;;;4999590;28;20471;-85
2021/08/23 07:32:26;;;;;;;0.50;0.40;;;18.30;99.90;;;;;;4998443;28;20977;-87
2021/08/23 07:34:54;;;;;;;0.50;0.30;;;18.40;99.90;;;;;;4999139;28;20484;-85
2021/08/23 07:37:21;;;;;;;0.50;0.40;;;18.40;99.90;;;;;;4999636;28;20441;-86
2021/08/23 07:39:48;;;;;;;0.50;0.30;;;18.40;99.90;;;;;;4999632;28;20441;-85
2021/08/23 07:42:15;;;;;;;0.50;0.40;;;18.40;99.90;;;;;;4998611;28;20464;-85
2021/08/23 07:44:42;;;;;;;0.50;0.37;;;18.50;99.90;;;;;;4998117;28;20436;-84
2021/08/23 07:47:09;;;;;;;0.50;0.30;;;18.50;99.90;;;;;;4997986;28;20443;-85
2021/08/23 07:49:36;;;;;;;0.73;0.70;;;18.60;99.90;;;;;;4998263;28;20445;-86
2021/08/23 07:52:05;;;;;;;0.50;0.30;;;18.50;99.90;;;;;;4998563;28;20472;-87
2021/08/23 07:54:32;;;;;;;0.50;0.37;;;18.50;99.90;;;;;;4999188;28;20484;-87
2021/08/23 07:56:59;;;;;;;0.50;0.30;;;18.50;99.90;;;;;;5000641;28;20945;-87
2021/08/23 07:59:26;;;;;;;0.50;0.30;;;18.60;99.90;;;;;;5000519;28;20454;-85
2021/08/23 08:01:53;;;;;;;0.83;0.83;;;18.80;99.90;;;;;;4998728;28;20897;-83
2021/08/23 08:04:20;;;;;;;0.87;0.70;;;18.80;99.90;;;;;;4999605;28;20475;-86
2021/08/23 08:06:46;;;;;;;0.50;0.30;;;18.80;99.90;;;;;;4998371;28;20526;-85
2021/08/23 08:09:14;;;;;;;0.50;0.30;;;18.80;99.90;;;;;;4998491;28;20455;-84
2021/08/23 08:11:41;;;;;;;0.50;0.30;;;18.90;99.90;;;;;;4999166;28;20463;-84
2021/08/23 08:14:08;;;;;;;0.50;0.30;;;19.00;99.90;;;;;;4998391;28;20485;-85
2021/08/23 08:16:35;;;;;;;0.93;0.93;;;19.10;99.90;;;;;;4997659;28;20821;-85
2021/08/23 08:19:01;;;;;;;1.90;1.43;;;19.10;99.90;;;;;;4997659;28;20529;-84
2021/08/23 08:21:28;;;;;;;0.50;0.30;;;19.20;99.90;;;;;;4997616;28;20960;-84
2021/08/23 08:23:56;;;;;;;0.50;0.40;;;19.40;99.90;;;;;;4998184;28;20451;-86
2021/08/23 08:26:24;;;;;;;0.50;0.30;;;19.50;99.90;;;;;;4997423;28;20444;-85
2021/08/23 08:28:51;;;;;;;0.50;0.30;;;19.60;99.90;;;;;;4998561;28;20441;-83
2021/08/23 08:31:18;;;;;;;0.50;0.30;;;19.70;99.90;;;;;;4998060;28;20450;-86
2021/08/23 08:33:46;;;;;;;0.50;0.30;;;19.90;99.90;;;;;;4998301;28;20445;-84
2021/08/23 08:36:14;;;;;;;0.50;0.40;;;20.00;99.90;;;;;;4998529;28;20487;-85
2021/08/23 08:38:41;;;;;;;0.50;0.40;;;20.00;99.90;;;;;;5005047;28;20439;-84
2021/08/23 08:41:08;;;;;;;1.17;1.10;;;20.00;99.90;;;;;;5010573;28;20478;-86
2021/08/23 08:43:37;;;;;;;6.97;5.97;;;20.10;99.90;;;;;;4998507;28;20974;-86
2021/08/23 08:46:05;;;;;;;0.50;0.30;;;20.30;99.90;;;;;;4999191;28;20515;-86
2021/08/23 08:48:32;;;;;;;1.43;0.97;;;20.70;99.90;;;;;;4998828;28;20447;-85
2021/08/23 08:50:59;;;;;;;0.53;0.40;;;20.90;99.90;;;;;;4999175;28;20956;-87
2021/08/23 08:53:26;;;;;;;0.50;0.30;;;21.00;99.90;;;;;;4998851;28;20481;-85
2021/08/23 08:55:52;;;;;;;0.53;0.47;;;21.10;99.90;;;;;;4999433;28;20482;-85
2021/08/23 08:58:23;;;;;;;0.50;0.30;;;21.00;99.90;;;;;;4999905;28;20445;-85
2021/08/23 09:00:52;;;;;;;0.50;0.30;;;20.90;99.90;;;;;;4999918;28;20455;-85
2021/08/23 09:03:26;;;;;;;0.50;0.30;;;20.70;99.90;;;;;;4997865;28;20471;-86
2021/08/23 09:06:01;;;;;;;1.57;0.90;;;20.60;99.90;;;;;;5000602;28;20450;-83
2021/08/23 09:08:29;;;;;;;8.33;4.53;;;20.50;99.90;;;;;;4999729;28;20423;-85
2021/08/23 09:10:56;;;;;;;0.50;0.40;;;20.50;99.90;;;;;;4999535;28;20447;-85
2021/08/23 09:13:25;;;;;;;0.50;0.30;;;20.70;99.90;;;;;;4999276;28;20553;-83
2021/08/23 09:15:54;;;;;;;3.07;2.83;;;20.80;99.90;;;;;;4999972;28;20550;-84
2021/08/23 09:18:23;;;;;;;0.50;0.30;;;20.90;99.90;;;;;;5000530;28;20804;-85
2021/08/23 09:20:58;;;;;;;0.60;0.50;;;21.10;99.90;;;;;;4999620;28;20668;-86
2021/08/23 09:23:35;;;;;;;0.50;0.30;;;21.20;99.90;;;;;;5000138;28;20459;-86
2021/08/23 09:26:12;;;;;;;0.50;0.30;;;21.20;99.90;;;;;;4999356;28;20423;-85
2021/08/23 09:28:41;;;;;;;0.50;0.40;;;20.90;99.90;;;;;;4998562;28;20507;-85
2021/08/23 09:31:11;;;;;;;0.60;0.40;;;21.00;99.90;;;;;;4997610;28;20441;-86
2021/08/23 09:33:42;;;;;;;2.97;2.77;;;21.10;99.90;;;;;;4997738;28;20494;-85
2021/08/23 09:36:10;;;;;;;1.07;1.07;;;21.20;99.90;;;;;;4997588;28;20999;-86
2021/08/23 09:38:39;;;;;;;1.30;0.70;;;21.50;99.90;;;;;;4997303;28;20443;-86
2021/08/23 09:41:06;;;;;;;0.50;0.30;;;21.70;99.90;;;;;;4997325;28;20820;-87
2021/08/23 09:43:35;;;;;;;0.50;0.40;;;22.00;99.90;;;;;;4997609;28;20800;-86
2021/08/23 09:46:09;;;;;;;0.50;0.30;;;22.20;99.90;;;;;;4997127;28;20484;-84
2021/08/23 09:48:39;;;;;;;0.50;0.30;;;22.10;99.90;;;;;;4995818;28;20454;-86
2021/08/23 09:51:06;;;;;;;0.70;0.60;;;22.00;99.90;;;;;;4998122;28;20544;-87
2021/08/23 09:53:33;;;;;;;1.23;1.23;;;21.90;99.90;;;;;;4997417;28;20467;-86
2021/08/23 09:56:00;;;;;;;0.50;0.30;;;21.70;99.90;;;;;;4996743;28;20479;-87
2021/08/23 09:58:27;;;;;;;1.73;1.63;;;21.70;99.90;;;;;;4996848;28;20447;-86
2021/08/23 10:00:56;;;;;;;0.50;0.30;;;21.80;99.90;;;;;;4997097;28;20436;-86
2021/08/23 10:03:26;;;;;;;0.80;0.70;;;21.80;99.90;;;;;;4996899;28;20476;-81
2021/08/23 10:05:54;;;;;;;0.50;0.40;;;21.70;99.90;;;;;;4997970;28;20844;-87
2021/08/23 10:08:25;;;;;;;0.50;0.40;;;21.70;99.90;;;;;;4997930;28;20437;-86
2021/08/23 10:10:52;;;;;;;0.50;0.30;;;22.00;99.90;;;;;;4997416;28;20441;-87
2021/08/23 10:13:20;;;;;;;0.50;0.30;;;22.20;99.90;;;;;;4997965;28;20474;-85
2021/08/23 10:15:47;;;;;;;0.50;0.30;;;22.40;99.90;;;;;;4997563;28;20482;-87
2021/08/23 10:18:16;;;;;;;0.60;0.60;;;22.70;99.90;;;;;;4998651;28;20455;-84
2021/08/23 10:20:43;;;;;;;0.50;0.30;;;22.90;99.90;;;;;;4997957;28;20441;-87
2021/08/23 10:23:16;;;;;;;0.50;0.30;;;23.30;99.90;;;;;;4997289;28;20464;-83
2021/08/23 10:25:43;;;;;;;1.13;1.03;;;23.50;99.90;;;;;;4997306;28;20417;-85
2021/08/23 10:28:12;;;;;;;0.73;0.60;;;23.40;99.90;;;;;;4998595;28;20799;-86
2021/08/23 10:30:39;;;;;;;0.50;0.40;;;23.20;99.90;;;;;;4998442;28;20447;-86
2021/08/23 10:33:13;;;;;;;1.73;1.63;;;23.10;99.90;;;;;;4998889;28;20464;-87
2021/08/23 10:35:49;;;;;;;3.80;3.03;;;22.90;99.90;;;;;;4998567;28;20463;-85
2021/08/23 10:38:19;;;;;;;0.93;0.70;;;22.70;99.90;;;;;;4998097;28;20535;-87
2021/08/23 10:40:48;;;;;;;0.50;0.40;;;22.60;99.90;;;;;;5003708;28;20471;-86
2021/08/23 10:43:17;;;;;;;0.50;0.30;;;22.50;99.90;;;;;;5000891;28;20492;-87
2021/08/23 10:45:44;;;;;;;0.50;0.30;;;22.30;99.90;;;;;;4999820;28;20439;-85
2021/08/23 10:48:16;;;;;;;0.50;0.30;;;22.30;99.90;;;;;;4999758;28;20874;-85
2021/08/23 10:50:43;;;;;;;0.50;0.30;;;22.30;99.90;;;;;;4998210;28;20458;-87
2021/08/23 10:53:13;;;;;;;0.50;0.30;;;22.40;99.90;;;;;;4999682;28;20464;-87
2021/08/23 10:55:42;;;;;;;0.50;0.30;;;22.50;99.90;;;;;;5000535;28;20481;-86
2021/08/23 10:58:10;;;;;;;0.50;0.30;;;22.40;99.90;;;;;;4999263;28;20446;-87
2021/08/23 11:00:40;;;;;;;0.50;0.30;;;22.40;99.90;;;;;;4998951;28;20451;-87
2021/08/23 11:03:07;;;;;;;0.50;0.40;;;22.60;99.90;;;;;;4999344;28;20477;-85
2021/08/23 11:05:34;;;;;;;0.50;0.30;;;22.80;99.90;;;;;;5000167;28;20454;-87
2021/08/23 11:08:07;;;;;;;0.50;0.40;;;22.70;99.90;;;;;;4998944;28;20471;-86
2021/08/23 11:10:36;;;;;;;2.30;2.10;;;22.80;99.90;;;;;;5000169;28;20429;-83
2021/08/23 11:13:14;;;;;;;0.50;0.30;;;23.00;99.90;;;;;;5000070;28;20460;-86
2021/08/23 11:15:40;;;;;;;0.50;0.30;;;23.20;99.90;;;;;;5000184;28;20480;-87
2021/08/23 11:18:10;;;;;;;0.50;0.40;;;23.60;99.90;;;;;;4999261;28;20450;-85
2021/08/23 11:20:39;;;;;;;0.50;0.40;;;24.00;99.90;;;;;;5000232;28;20480;-87
2021/08/23 11:23:08;;;;;;;0.50;0.30;;;24.50;99.90;;;;;;4999611;28;20452;-87
2021/08/23 11:25:37;;;;;;;0.50;0.30;;;25.00;99.90;;;;;;5000748;28;20468;-87
2021/08/23 11:28:06;;;;;;;0.50;0.40;;;25.40;99.90;;;;;;4999407;28;20445;-85
2021/08/23 11:30:36;;;;;;;0.50;0.30;;;26.00;99.90;;;;;;4999652;28;20449;-86
2021/08/23 11:33:04;;;;;;;0.50;0.30;;;26.10;99.90;;;;;;5000437;28;20463;-86
2021/08/23 11:35:31;;;;;;;0.50;0.50;;;26.10;99.90;;;;;;4999558;28;20484;-86
2021/08/23 11:38:00;;;;;;;0.50;0.30;;;26.10;99.90;;;;;;4999870;28;20453;-87
2021/08/23 11:40:28;;;;;;;0.50;0.30;;;26.00;99.90;;;;;;4999545;28;20442;-87
2021/08/23 11:42:57;;;;;;;0.50;0.30;;;25.70;99.90;;;;;;5000226;28;20469;-86
2021/08/23 11:45:26;;;;;;;0.50;0.30;;;25.50;99.90;;;;;;4999930;28;20442;-85
2021/08/23 11:47:54;;;;;;;0.50;0.30;;;25.50;99.90;;;;;;4998867;28;20465;-81
2021/08/23 11:50:22;;;;;;;0.50;0.50;;;25.20;99.90;;;;;;4999559;28;20872;-87
2021/08/23 11:52:49;;;;;;;0.50;0.30;;;25.10;99.90;;;;;;4999759;28;20991;-86
2021/08/23 11:55:26;;;;;;;2.10;2.00;;;25.10;99.90;;;;;;5003071;28;20446;-85
2021/08/23 11:58:01;;;;;;;0.50;0.30;;;25.00;99.90;;;;;;5002257;28;20444;-87
2021/08/23 12:00:29;;;;;;;0.50;0.40;;;24.60;99.90;;;;;;5001968;28;20801;-87
2021/08/23 12:03:07;;;;;;;1.07;1.07;;;24.50;99.90;;;;;;5002411;28;20843;-87
2021/08/23 12:05:40;;;;;;;0.50;0.30;;;24.50;99.90;;;;;;5003349;28;20550;-86
2021/08/23 12:08:08;;;;;;;0.50;0.40;;;24.50;99.90;;;;;;5002110;28;20439;-83
2021/08/23 12:10:37;;;;;;;0.50;0.30;;;24.50;99.90;;;;;;5001721;28;20449;-85
2021/08/23 12:13:12;;;;;;;0.50;0.30;;;24.50;99.90;;;;;;5002016;28;20468;-85
2021/08/23 12:15:51;;;;;;;0.50;0.30;;;24.50;99.90;;;;;;5000575;28;20532;-85
2021/08/23 12:18:20;;;;;;;0.50;0.30;;;24.80;99.90;;;;;;5001311;28;20465;-86
2021/08/23 12:21:05;;;;;;;0.50;0.30;;;24.90;99.90;;;;;;5003493;28;20453;-86
2021/08/23 12:23:50;;;;;;;0.50;0.30;;;24.90;99.90;;;;;;5002044;28;20515;-86
2021/08/23 12:26:25;;;;;;;0.50;0.40;;;24.60;99.90;;;;;;5002417;28;20440;-87
2021/08/23 12:28:54;;;;;;;0.50;0.30;;;24.40;99.90;;;;;;5002236;28;20425;-85
2021/08/23 12:31:21;;;;;;;0.50;0.30;;;24.40;99.90;;;;;;5001331;28;20455;-82
2021/08/23 12:33:50;;;;;;;0.50;0.30;;;24.20;99.90;;;;;;5000396;28;20440;-85
2021/08/23 12:36:17;;;;;;;0.50;0.40;;;24.00;99.90;;;;;;5000582;28;20484;-84
2021/08/23 12:38:45;;;;;;;0.50;0.30;;;24.20;99.90;;;;;;5001093;28;20447;-87
2021/08/23 12:41:12;;;;;;;0.50;0.40;;;24.30;99.90;;;;;;5002314;28;20491;-86
2021/08/23 12:43:40;;;;;;;0.50;0.40;;;23.90;99.90;;;;;;5000774;28;21002;-85
2021/08/23 12:46:07;;;;;;;0.50;0.30;;;23.90;99.90;;;;;;5000635;28;20891;-86
2021/08/23 12:48:35;;;;;;;0.50;0.40;;;23.90;99.90;;;;;;5001561;28;20459;-85